Time;durP1;ratioP1;P1;durP2;ratioP2;P2;SDS_P1;SDS_P2;PMS_P1;PMS_P2;Temp;Humidity;BMP_temperature;BMP_pressure;BME280_temperature;BME280_humidity;BME280_pressure;Samples;Min_cycle;Max_cycle;Signal;HPM_P1;HPM_P2
2022/07/20 00:00:13;;;;;;;0.00;0.00;;;26.40;85.70;;;;;;5059857;28;20041;-66
2022/07/20 00:02:39;;;;;;;0.20;0.20;;;26.40;86.60;;;;;;5059419;28;20491;-65
2022/07/20 00:05:05;;;;;;;0.00;0.00;;;26.30;85.50;;;;;;5073007;28;20053;-66
2022/07/20 00:07:32;;;;;;;0.00;0.00;;;26.30;87.40;;;;;;5060212;28;20570;-65
2022/07/20 00:12:42;;;;;;;0.32;0.32;;;26.20;86.30;;;;;;5071820;28;20059;-65
2022/07/20 00:15:08;;;;;;;0.03;0.03;;;26.10;86.40;;;;;;5074210;28;20040;-65
2022/07/20 00:17:33;;;;;;;0.38;0.38;;;26.10;86.20;;;;;;5073360;28;20126;-66
2022/07/20 00:19:59;;;;;;;0.60;0.60;;;26.00;87.10;;;;;;5073147;28;20131;-65
2022/07/20 00:22:24;;;;;;;0.03;0.03;;;25.90;87.20;;;;;;5075973;28;20055;-65
2022/07/20 00:24:50;;;;;;;0.03;0.03;;;26.00;86.80;;;;;;5073534;28;20044;-65
2022/07/20 00:27:15;;;;;;;0.73;0.40;;;25.90;86.50;;;;;;5067327;28;20047;-65
2022/07/20 00:29:41;;;;;;;0.00;0.00;;;25.90;87.10;;;;;;5048357;28;20075;-65
2022/07/20 00:32:07;;;;;;;0.10;0.10;;;25.90;87.00;;;;;;5067999;28;20503;-65
2022/07/20 00:34:32;;;;;;;0.00;0.00;;;25.80;87.70;;;;;;5073842;28;20079;-65
2022/07/20 00:36:58;;;;;;;0.32;0.32;;;25.80;87.40;;;;;;5077032;28;20105;-65
2022/07/20 00:39:23;;;;;;;0.20;0.20;;;25.70;88.50;;;;;;5080309;28;20048;-65
2022/07/20 00:41:49;;;;;;;0.52;0.38;;;25.60;88.40;;;;;;5058009;28;20044;-65
2022/07/20 00:44:15;;;;;;;0.00;0.00;;;25.60;87.80;;;;;;5047485;28;20497;-65
2022/07/20 00:46:43;;;;;;;0.03;0.03;;;25.60;87.40;;;;;;5047174;28;20210;-65
2022/07/20 00:49:11;;;;;;;0.00;0.00;;;25.60;87.30;;;;;;5075538;28;20045;-65
2022/07/20 00:51:39;;;;;;;0.22;0.22;;;25.60;88.50;;;;;;5075322;28;20051;-65
2022/07/20 00:54:05;;;;;;;0.00;0.00;;;25.60;87.40;;;;;;5078593;28;20075;-65
2022/07/20 00:56:31;;;;;;;0.32;0.32;;;25.60;87.10;;;;;;5058525;28;20423;-65
2022/07/20 00:58:57;;;;;;;1.48;0.40;;;25.50;87.80;;;;;;5074261;28;20044;-66
2022/07/20 01:01:23;;;;;;;0.10;0.10;;;25.40;86.70;;;;;;5039680;28;20054;-65
2022/07/20 01:03:49;;;;;;;0.77;0.77;;;25.40;86.80;;;;;;5058347;28;20072;-65
2022/07/20 01:06:14;;;;;;;0.20;0.20;;;25.40;88.00;;;;;;5056165;28;20443;-65
2022/07/20 01:08:40;;;;;;;0.10;0.10;;;25.30;88.20;;;;;;5063588;28;20049;-65
2022/07/20 01:11:06;;;;;;;0.40;0.40;;;25.30;87.50;;;;;;5072460;28;20127;-65
2022/07/20 01:13:32;;;;;;;0.00;0.00;;;25.30;88.40;;;;;;5070875;28;20044;-65
2022/07/20 01:15:57;;;;;;;2.50;0.40;;;25.30;87.10;;;;;;5059706;28;20052;-65
2022/07/20 01:18:23;;;;;;;0.00;0.00;;;25.30;87.30;;;;;;5061340;28;20427;-65
2022/07/20 01:20:50;;;;;;;0.00;0.00;;;25.30;87.10;;;;;;5076200;28;20040;-65
2022/07/20 01:23:17;;;;;;;1.35;0.80;;;25.30;88.70;;;;;;5056947;28;20109;-65
2022/07/20 01:25:43;;;;;;;0.00;0.00;;;25.20;89.10;;;;;;5067957;28;20589;-65
2022/07/20 01:28:11;;;;;;;0.13;0.13;;;25.20;88.40;;;;;;5059478;28;20484;-66
2022/07/20 01:30:38;;;;;;;0.10;0.10;;;25.10;87.60;;;;;;5051317;28;20049;-65
2022/07/20 01:33:04;;;;;;;9.52;0.55;;;25.10;87.20;;;;;;5059734;28;20071;-65
2022/07/20 01:35:30;;;;;;;0.10;0.10;;;25.10;87.20;;;;;;5073239;28;20090;-65
2022/07/20 01:37:56;;;;;;;0.70;0.70;;;25.10;87.50;;;;;;5055956;28;20626;-65
2022/07/20 01:40:22;;;;;;;0.08;0.08;;;25.00;88.20;;;;;;5054848;28;20048;-65
2022/07/20 01:42:47;;;;;;;0.00;0.00;;;25.00;87.90;;;;;;5056770;28;20099;-65
2022/07/20 01:45:13;;;;;;;0.65;0.15;;;24.90;88.20;;;;;;5042903;28;20526;-65
2022/07/20 01:47:39;;;;;;;0.20;0.15;;;24.90;88.20;;;;;;5060418;28;20044;-65
2022/07/20 01:50:05;;;;;;;0.28;0.20;;;24.90;88.10;;;;;;5068834;28;20044;-65
2022/07/20 01:52:31;;;;;;;0.20;0.20;;;24.90;87.20;;;;;;5052700;28;20083;-65
2022/07/20 01:54:56;;;;;;;0.32;0.25;;;24.90;87.50;;;;;;5068133;28;20080;-65
2022/07/20 01:57:22;;;;;;;0.08;0.08;;;24.90;88.10;;;;;;5081078;28;20044;-65
2022/07/20 01:59:48;;;;;;;0.00;0.00;;;24.80;87.50;;;;;;5064391;28;20090;-65
2022/07/20 02:02:13;;;;;;;1.65;1.13;;;24.80;88.20;;;;;;5080414;28;20036;-65
2022/07/20 02:04:39;;;;;;;0.47;0.47;;;24.80;88.20;;;;;;5053012;28;20064;-65
2022/07/20 02:07:04;;;;;;;0.03;0.03;;;24.80;88.60;;;;;;5078480;28;20054;-65
2022/07/20 02:09:30;;;;;;;0.65;0.35;;;24.70;87.80;;;;;;5082640;28;20083;-65
2022/07/20 02:11:56;;;;;;;0.03;0.03;;;24.70;88.80;;;;;;5082685;28;20474;-65
2022/07/20 02:14:21;;;;;;;0.10;0.10;;;24.70;87.50;;;;;;5035027;28;20037;-65
2022/07/20 02:16:47;;;;;;;0.05;0.05;;;24.70;88.10;;;;;;5059507;28;20123;-65
2022/07/20 02:19:12;;;;;;;0.03;0.03;;;24.60;88.10;;;;;;5042972;28;20498;-65
2022/07/20 02:21:38;;;;;;;0.47;0.47;;;24.60;88.60;;;;;;5079852;28;20135;-65
2022/07/20 02:24:04;;;;;;;0.43;0.43;;;24.60;88.00;;;;;;5060230;28;20047;-65
2022/07/20 02:26:30;;;;;;;0.03;0.03;;;24.60;88.10;;;;;;5079295;28;20613;-65
2022/07/20 02:28:55;;;;;;;0.28;0.28;;;24.60;88.10;;;;;;5070233;28;20147;-65
2022/07/20 02:31:23;;;;;;;7.32;0.65;;;24.50;88.40;;;;;;5070334;28;20071;-65
2022/07/20 02:33:49;;;;;;;0.38;0.38;;;24.50;88.60;;;;;;5083294;28;20059;-65
2022/07/20 02:36:15;;;;;;;0.60;0.30;;;24.50;88.10;;;;;;5052153;28;20053;-65
2022/07/20 02:38:41;;;;;;;0.00;0.00;;;24.50;88.70;;;;;;5074017;28;20483;-65
2022/07/20 02:41:07;;;;;;;0.20;0.20;;;24.50;89.00;;;;;;5057783;28;20055;-65
2022/07/20 02:43:32;;;;;;;0.55;0.55;;;24.50;87.70;;;;;;5065011;28;20087;-65
2022/07/20 02:45:58;;;;;;;0.00;0.00;;;24.40;88.40;;;;;;5066358;28;20044;-65
2022/07/20 02:48:24;;;;;;;0.13;0.13;;;24.30;88.60;;;;;;5070756;28;20194;-65
2022/07/20 02:50:49;;;;;;;0.20;0.20;;;24.30;90.20;;;;;;5075333;28;20044;-65
2022/07/20 02:53:15;;;;;;;0.00;0.00;;;24.30;89.10;;;;;;5032121;28;20389;-65
2022/07/20 02:55:42;;;;;;;0.00;0.00;;;24.30;87.80;;;;;;5049757;28;20476;-65
2022/07/20 02:58:09;;;;;;;0.30;0.30;;;24.20;89.00;;;;;;5055661;28;20036;-65
2022/07/20 03:00:35;;;;;;;0.10;0.10;;;24.30;88.40;;;;;;5064532;28;20511;-65
2022/07/20 03:03:01;;;;;;;0.47;0.47;;;24.30;88.10;;;;;;5069076;28;20059;-65
2022/07/20 03:05:27;;;;;;;0.10;0.10;;;24.30;87.80;;;;;;5080193;28;20051;-65
2022/07/20 03:07:53;;;;;;;0.10;0.10;;;24.20;88.70;;;;;;5087326;28;20514;-66
2022/07/20 03:10:19;;;;;;;0.00;0.00;;;24.30;88.60;;;;;;5078362;28;20399;-66
2022/07/20 03:12:44;;;;;;;0.08;0.08;;;24.20;88.70;;;;;;5068305;28;20075;-65
2022/07/20 03:15:11;;;;;;;0.47;0.47;;;24.10;88.60;;;;;;5037684;28;20113;-65
2022/07/20 03:17:48;;;;;;;0.00;0.00;;;24.10;89.60;;;;;;5057172;28;20559;-65
2022/07/20 03:20:26;;;;;;;2.25;1.17;;;24.10;88.20;;;;;;5049317;28;20504;-65
2022/07/20 03:22:52;;;;;;;0.20;0.20;;;24.10;88.90;;;;;;5054405;28;20049;-65
2022/07/20 03:25:18;;;;;;;0.40;0.40;;;24.10;90.00;;;;;;5046989;28;20063;-65
2022/07/20 03:27:44;;;;;;;0.30;0.30;;;24.10;88.40;;;;;;5072874;28;20071;-65
2022/07/20 03:30:10;;;;;;;0.22;0.22;;;24.10;88.10;;;;;;5068944;28;20040;-65
2022/07/20 03:32:36;;;;;;;0.88;0.43;;;24.00;88.70;;;;;;5053893;28;20094;-65
2022/07/20 03:35:01;;;;;;;0.68;0.68;;;24.10;88.40;;;;;;5075497;28;20432;-65
2022/07/20 03:37:27;;;;;;;0.63;0.52;;;24.00;88.90;;;;;;5081129;28;20052;-65
2022/07/20 03:39:53;;;;;;;0.00;0.00;;;24.00;88.80;;;;;;5074361;28;20087;-65
2022/07/20 03:42:18;;;;;;;0.10;0.10;;;23.90;90.00;;;;;;5060877;28;20066;-65
2022/07/20 03:44:44;;;;;;;0.20;0.20;;;23.90;89.20;;;;;;5069178;28;20048;-65
2022/07/20 03:47:09;;;;;;;0.00;0.00;;;23.90;88.70;;;;;;5039263;28;20056;-65
2022/07/20 03:49:35;;;;;;;0.15;0.15;;;24.00;88.20;;;;;;5083395;28;20197;-65
2022/07/20 03:52:01;;;;;;;0.00;0.00;;;23.80;88.60;;;;;;5062848;28;20044;-65
2022/07/20 03:54:26;;;;;;;0.10;0.08;;;23.80;89.20;;;;;;5065638;28;20044;-65
2022/07/20 03:56:52;;;;;;;2.72;2.05;;;23.70;90.60;;;;;;5075648;28;20079;-65
2022/07/20 03:59:17;;;;;;;0.75;0.75;;;23.80;89.20;;;;;;5068131;28;20083;-65
2022/07/20 04:01:43;;;;;;;0.32;0.28;;;23.70;89.40;;;;;;5082705;28;20047;-65
2022/07/20 04:04:09;;;;;;;0.08;0.08;;;23.70;89.60;;;;;;5068213;28;20041;-66
2022/07/20 04:06:35;;;;;;;0.15;0.15;;;23.70;90.20;;;;;;5068395;28;20053;-65
2022/07/20 04:09:02;;;;;;;0.13;0.13;;;23.70;89.50;;;;;;5065208;28;20048;-65
2022/07/20 04:11:28;;;;;;;13.43;0.55;;;23.60;89.60;;;;;;5075795;28;20045;-65
2022/07/20 04:13:54;;;;;;;0.08;0.08;;;23.70;89.40;;;;;;5068040;28;20044;-65
2022/07/20 04:16:19;;;;;;;0.00;0.00;;;23.60;89.50;;;;;;5068796;28;20509;-65
2022/07/20 04:18:45;;;;;;;0.10;0.10;;;23.60;89.20;;;;;;5086847;28;20445;-65
2022/07/20 04:21:11;;;;;;;0.13;0.13;;;23.60;89.80;;;;;;5062439;28;20059;-65
2022/07/20 04:23:37;;;;;;;0.03;0.03;;;23.50;90.00;;;;;;5061222;28;20037;-65
2022/07/20 04:26:02;;;;;;;0.47;0.47;;;23.50;89.10;;;;;;5067326;28;20048;-65
2022/07/20 04:28:28;;;;;;;0.05;0.05;;;23.50;90.00;;;;;;5063196;28;20039;-65
2022/07/20 04:30:54;;;;;;;0.15;0.15;;;23.50;89.60;;;;;;5054261;28;20041;-65
2022/07/20 04:33:19;;;;;;;0.00;0.00;;;23.50;88.70;;;;;;5075346;28;20123;-65
2022/07/20 04:35:46;;;;;;;1.38;1.27;;;23.50;89.20;;;;;;5085902;28;20036;-65
2022/07/20 04:38:17;;;;;;;0.43;0.43;;;23.50;89.80;;;;;;5065935;28;20045;-65
2022/07/20 04:40:42;;;;;;;0.38;0.38;;;23.40;89.90;;;;;;5052598;28;20139;-65
2022/07/20 04:43:08;;;;;;;0.08;0.08;;;23.40;90.00;;;;;;5039879;28;20135;-65
2022/07/20 04:45:34;;;;;;;0.52;0.52;;;23.40;89.60;;;;;;5061361;28;20047;-65
2022/07/20 04:47:59;;;;;;;0.03;0.03;;;23.50;89.70;;;;;;5047720;28;20138;-65
2022/07/20 04:50:25;;;;;;;0.22;0.22;;;23.50;90.20;;;;;;5056617;28;20129;-65
2022/07/20 04:52:51;;;;;;;0.32;0.25;;;23.50;90.00;;;;;;5087918;28;20044;-66
2022/07/20 04:55:16;;;;;;;0.10;0.10;;;23.50;90.00;;;;;;5073839;28;20090;-65
2022/07/20 04:57:42;;;;;;;0.10;0.10;;;23.50;90.30;;;;;;5047766;28;20049;-65
2022/07/20 05:00:08;;;;;;;0.05;0.05;;;23.50;90.50;;;;;;5074452;28;20051;-65
2022/07/20 05:02:34;;;;;;;0.08;0.08;;;23.50;90.70;;;;;;5072366;28;20049;-65
2022/07/20 05:05:00;;;;;;;0.47;0.47;;;23.40;90.50;;;;;;5060904;28;20063;-65
2022/07/20 05:07:25;;;;;;;0.52;0.47;;;23.50;90.60;;;;;;5076478;28;20503;-65
2022/07/20 05:09:51;;;;;;;1.20;0.55;;;23.50;90.70;;;;;;5071929;28;20083;-65
2022/07/20 05:12:16;;;;;;;0.25;0.25;;;23.50;91.00;;;;;;5066220;28;20115;-65
2022/07/20 05:14:42;;;;;;;0.98;0.68;;;23.50;90.70;;;;;;5058163;28;20380;-65
2022/07/20 05:17:08;;;;;;;1.10;0.68;;;23.60;91.10;;;;;;5062572;28;20423;-65
2022/07/20 05:19:33;;;;;;;0.13;0.10;;;23.60;91.00;;;;;;5068816;28;20033;-65
2022/07/20 05:21:59;;;;;;;0.20;0.20;;;23.60;90.70;;;;;;5041582;28;20094;-65
2022/07/20 05:24:25;;;;;;;0.00;0.00;;;23.70;91.50;;;;;;5068776;28;20044;-65
2022/07/20 05:26:51;;;;;;;0.45;0.30;;;23.80;90.80;;;;;;5063199;28;20072;-65
2022/07/20 05:29:17;;;;;;;0.00;0.00;;;23.80;90.70;;;;;;5039621;28;20122;-65
2022/07/20 05:31:43;;;;;;;0.05;0.05;;;23.80;90.80;;;;;;5077040;28;20040;-65
2022/07/20 05:34:08;;;;;;;0.00;0.00;;;23.90;90.40;;;;;;5082555;28;20558;-65
2022/07/20 05:36:34;;;;;;;0.00;0.00;;;24.00;90.60;;;;;;5065636;28;20102;-65
2022/07/20 05:39:00;;;;;;;1.45;1.27;;;24.00;90.70;;;;;;5062562;28;20060;-65
2022/07/20 05:41:25;;;;;;;3.67;2.17;;;24.10;90.70;;;;;;5067711;28;20029;-65
2022/07/20 05:43:51;;;;;;;0.00;0.00;;;24.10;90.80;;;;;;5058011;28;20052;-65
2022/07/20 05:46:16;;;;;;;0.00;0.00;;;24.30;90.70;;;;;;5062930;28;20484;-65
2022/07/20 05:48:42;;;;;;;0.00;0.00;;;24.40;90.30;;;;;;5070804;28;20048;-65
2022/07/20 05:51:08;;;;;;;0.35;0.35;;;24.40;90.70;;;;;;5069753;28;20057;-65
2022/07/20 05:53:33;;;;;;;0.10;0.10;;;24.40;90.10;;;;;;5062205;28;20048;-65
2022/07/20 05:55:59;;;;;;;0.00;0.00;;;24.50;90.60;;;;;;5078173;28;20387;-65
2022/07/20 05:58:24;;;;;;;0.00;0.00;;;24.50;90.60;;;;;;5068481;28;20109;-65
2022/07/20 06:00:50;;;;;;;0.00;0.00;;;24.50;90.70;;;;;;5057158;28;20040;-65
2022/07/20 06:03:15;;;;;;;1.35;0.57;;;24.50;90.60;;;;;;5071740;28;20714;-65
2022/07/20 06:05:41;;;;;;;0.90;0.65;;;24.50;90.90;;;;;;5077660;28;20060;-65
2022/07/20 06:08:07;;;;;;;1.67;0.35;;;24.60;91.00;;;;;;5069803;28;20076;-65
2022/07/20 06:10:34;;;;;;;0.10;0.10;;;24.60;91.10;;;;;;5073857;28;20051;-65
2022/07/20 06:13:01;;;;;;;0.70;0.55;;;24.60;91.90;;;;;;5070193;28;20086;-65
2022/07/20 06:15:27;;;;;;;4.03;1.17;;;24.60;91.70;;;;;;5060861;28;20062;-65
2022/07/20 06:17:54;;;;;;;0.00;0.00;;;24.70;92.40;;;;;;5048402;28;20037;-65
2022/07/20 06:20:20;;;;;;;0.10;0.10;;;24.70;92.20;;;;;;5042970;28;20559;-65
2022/07/20 06:22:46;;;;;;;0.30;0.30;;;24.70;92.60;;;;;;5052538;28;20045;-65
2022/07/20 06:25:14;;;;;;;0.77;0.22;;;24.70;93.40;;;;;;5048558;28;20040;-65
2022/07/20 06:27:40;;;;;;;0.25;0.20;;;24.70;93.80;;;;;;5058136;28;20059;-65
2022/07/20 06:30:07;;;;;;;11.45;2.25;;;24.70;94.00;;;;;;5075978;28;20063;-65
2022/07/20 06:32:33;;;;;;;2.75;2.50;;;24.70;94.50;;;;;;5064868;28;20048;-65
2022/07/20 06:34:59;;;;;;;0.03;0.03;;;24.80;94.90;;;;;;5062340;28;20033;-65
2022/07/20 06:37:25;;;;;;;0.57;0.57;;;24.80;95.10;;;;;;5068016;28;20044;-65
2022/07/20 06:39:51;;;;;;;0.22;0.22;;;24.80;94.70;;;;;;5058555;28;20048;-65
2022/07/20 06:42:17;;;;;;;0.43;0.35;;;24.90;95.20;;;;;;5063331;28;20089;-65
2022/07/20 06:44:44;;;;;;;0.47;0.47;;;24.90;95.30;;;;;;5079071;28;20040;-65
2022/07/20 06:47:09;;;;;;;0.30;0.30;;;24.90;95.50;;;;;;5052999;28;20073;-65
2022/07/20 06:49:35;;;;;;;0.30;0.30;;;24.90;95.40;;;;;;5051607;28;20084;-65
2022/07/20 06:52:01;;;;;;;0.70;0.50;;;25.00;95.90;;;;;;5064179;28;20056;-66
2022/07/20 06:54:27;;;;;;;0.90;0.63;;;25.00;96.30;;;;;;5071574;28;20666;-65
2022/07/20 06:56:52;;;;;;;2.08;1.38;;;25.00;96.90;;;;;;5060685;28;20056;-65
2022/07/20 06:59:18;;;;;;;0.50;0.50;;;25.00;97.00;;;;;;5058769;28;20055;-65
2022/07/20 07:01:44;;;;;;;0.50;0.22;;;25.00;97.60;;;;;;5050000;28;20060;-65
2022/07/20 07:04:09;;;;;;;1.58;1.30;;;25.10;98.00;;;;;;5061012;28;20127;-66
2022/07/20 07:06:35;;;;;;;1.85;0.40;;;25.10;98.10;;;;;;5053486;28;20040;-66
2022/07/20 07:09:01;;;;;;;0.10;0.10;;;25.10;98.90;;;;;;5051691;28;20052;-65
2022/07/20 07:11:26;;;;;;;2.95;2.00;;;25.20;99.10;;;;;;5062033;28;20090;-66
2022/07/20 07:13:52;;;;;;;1.38;1.10;;;25.30;98.50;;;;;;5069663;28;20039;-65
2022/07/20 07:16:18;;;;;;;2.45;0.95;;;25.30;99.10;;;;;;5055059;28;20175;-65
2022/07/20 07:18:43;;;;;;;0.73;0.65;;;25.30;98.90;;;;;;5043234;28;20044;-65
2022/07/20 07:21:09;;;;;;;2.30;1.75;;;25.30;99.50;;;;;;5072226;28;20039;-66
2022/07/20 07:23:35;;;;;;;1.33;1.23;;;25.40;99.60;;;;;;5067104;28;20131;-65
2022/07/20 07:26:01;;;;;;;0.88;0.88;;;25.30;99.80;;;;;;5057492;28;20134;-65
2022/07/20 07:28:27;;;;;;;3.38;1.05;;;25.40;99.90;;;;;;5040886;28;20052;-65
2022/07/20 07:30:52;;;;;;;0.25;0.25;;;25.40;99.90;;;;;;5037578;28;20037;-65
2022/07/20 07:33:24;;;;;;;2.35;2.15;;;25.40;99.90;;;;;;5083419;28;20074;-65
2022/07/20 07:35:50;;;;;;;1.45;1.00;;;25.40;99.90;;;;;;5069337;28;20048;-65
2022/07/20 07:38:15;;;;;;;3.53;2.10;;;25.50;99.90;;;;;;5067365;28;20131;-65
2022/07/20 07:40:41;;;;;;;2.83;2.28;;;25.50;99.90;;;;;;5080682;28;20059;-65
2022/07/20 07:43:06;;;;;;;2.22;1.90;;;25.50;99.90;;;;;;5039420;28;21599;-65
2022/07/20 07:45:32;;;;;;;1.33;1.25;;;25.60;99.90;;;;;;5065404;28;20087;-65
2022/07/20 07:47:58;;;;;;;1.58;1.48;;;25.60;99.90;;;;;;5049150;28;20045;-68
2022/07/20 07:50:23;;;;;;;1.40;1.30;;;25.70;99.90;;;;;;5049158;28;20602;-63
2022/07/20 07:52:49;;;;;;;2.50;2.20;;;25.70;99.90;;;;;;5067275;28;20086;-63
2022/07/20 07:55:14;;;;;;;10.32;1.65;;;25.80;99.90;;;;;;5051075;28;20056;-66
2022/07/20 07:57:41;;;;;;;20.23;2.00;;;25.80;99.90;;;;;;5073590;28;20051;-65
2022/07/20 08:00:08;;;;;;;4.32;2.08;;;25.90;99.90;;;;;;5070107;28;20044;-66
2022/07/20 08:02:34;;;;;;;1.33;0.93;;;25.90;99.90;;;;;;5089317;28;20137;-68
2022/07/20 08:04:59;;;;;;;19.23;3.40;;;26.00;99.90;;;;;;5079056;28;20499;-68
2022/07/20 08:07:25;;;;;;;2.95;1.40;;;26.00;99.90;;;;;;5068325;28;20052;-67
2022/07/20 08:09:50;;;;;;;4.30;2.17;;;26.00;99.90;;;;;;5068088;28;20471;-66
2022/07/20 08:12:18;;;;;;;0.63;0.45;;;26.00;99.90;;;;;;5074278;28;20408;-66
2022/07/20 08:14:43;;;;;;;1.88;1.17;;;26.10;99.90;;;;;;5088158;28;20487;-66
2022/07/20 08:17:09;;;;;;;0.90;0.60;;;26.10;99.90;;;;;;5074029;28;20055;-66
2022/07/20 08:19:34;;;;;;;0.90;0.90;;;26.10;99.90;;;;;;5088109;28;20054;-66
2022/07/20 08:22:00;;;;;;;1.02;0.75;;;26.10;99.90;;;;;;5070993;28;20122;-66
2022/07/20 08:24:25;;;;;;;7.68;1.02;;;26.20;99.90;;;;;;5087448;28;20108;-66
2022/07/20 08:26:51;;;;;;;0.43;0.30;;;26.20;99.90;;;;;;5067233;28;20060;-65
2022/07/20 08:29:17;;;;;;;1.30;1.20;;;26.20;99.90;;;;;;5058901;28;20037;-66
2022/07/20 08:31:42;;;;;;;0.43;0.30;;;26.20;99.90;;;;;;5048262;28;20143;-66
2022/07/20 08:34:08;;;;;;;0.82;0.82;;;26.30;99.90;;;;;;5066645;28;20472;-66
2022/07/20 08:36:34;;;;;;;0.60;0.55;;;26.30;99.90;;;;;;5056321;28;20048;-66
2022/07/20 08:38:59;;;;;;;0.75;0.60;;;26.30;99.90;;;;;;5061626;28;20060;-66
2022/07/20 08:41:25;;;;;;;3.70;1.70;;;26.30;99.90;;;;;;5068429;28;20036;-66
2022/07/20 08:43:51;;;;;;;0.30;0.30;;;26.20;99.90;;;;;;5087766;28;20044;-66
2022/07/20 08:46:18;;;;;;;1.48;1.38;;;26.20;99.90;;;;;;5087415;28;20036;-67
2022/07/20 08:48:44;;;;;;;1.45;1.35;;;26.10;99.80;;;;;;5069610;28;20035;-67
2022/07/20 08:51:09;;;;;;;0.45;0.45;;;26.10;99.90;;;;;;5055533;28;20109;-66
2022/07/20 08:53:35;;;;;;;4.90;2.05;;;26.10;99.90;;;;;;5054509;28;20041;-66
2022/07/20 08:56:01;;;;;;;0.10;0.10;;;26.10;99.90;;;;;;5050387;28;20102;-67
2022/07/20 08:58:26;;;;;;;0.77;0.73;;;26.10;99.90;;;;;;5073975;28;20098;-66
2022/07/20 09:00:52;;;;;;;0.85;0.43;;;26.10;99.90;;;;;;5059584;28;20047;-66
2022/07/20 09:03:18;;;;;;;9.23;2.00;;;26.10;99.80;;;;;;5071446;28;20044;-67
2022/07/20 09:05:43;;;;;;;2.95;1.10;;;26.10;99.40;;;;;;5053170;28;20060;-67
2022/07/20 09:08:14;;;;;;;2.30;0.60;;;26.10;99.70;;;;;;5067629;28;20064;-67
2022/07/20 09:10:43;;;;;;;0.80;0.80;;;26.20;99.80;;;;;;5035808;28;20053;-67
2022/07/20 09:13:17;;;;;;;0.30;0.30;;;26.20;99.30;;;;;;5029989;28;20547;-66
2022/07/20 09:15:48;;;;;;;0.20;0.20;;;26.30;98.90;;;;;;5033263;28;20053;-67
2022/07/20 09:18:21;;;;;;;0.82;0.80;;;26.30;98.90;;;;;;5087182;28;20036;-66
2022/07/20 09:21:01;;;;;;;0.13;0.13;;;26.30;99.00;;;;;;5088262;28;20719;-67
2022/07/20 09:23:31;;;;;;;1.23;0.65;;;26.30;99.20;;;;;;5057051;28;20041;-66
2022/07/20 09:26:07;;;;;;;0.47;0.38;;;26.40;99.00;;;;;;5070548;28;20453;-67
2022/07/20 09:28:42;;;;;;;0.47;0.22;;;26.60;99.30;;;;;;5069177;28;20124;-67
2022/07/20 09:31:09;;;;;;;0.25;0.25;;;26.70;98.80;;;;;;5046832;28;20044;-67
2022/07/20 09:33:35;;;;;;;0.52;0.52;;;26.70;98.60;;;;;;5072666;28;20044;-67
2022/07/20 09:36:03;;;;;;;1.35;0.65;;;26.80;98.40;;;;;;5039111;28;20049;-67
2022/07/20 09:38:40;;;;;;;0.35;0.32;;;26.80;97.90;;;;;;5064570;28;20044;-66
2022/07/20 09:41:29;;;;;;;0.10;0.10;;;27.00;98.20;;;;;;5067158;28;20078;-66
2022/07/20 09:43:56;;;;;;;1.13;1.02;;;27.20;97.90;;;;;;5066367;28;20471;-66
2022/07/20 09:46:25;;;;;;;0.15;0.15;;;27.30;97.40;;;;;;5058328;28;20093;-67
2022/07/20 09:49:11;;;;;;;0.20;0.20;;;27.30;95.70;;;;;;5048903;28;20612;-67
2022/07/20 09:51:39;;;;;;;0.10;0.10;;;27.50;95.50;;;;;;5072646;28;20055;-66
2022/07/20 09:54:06;;;;;;;1.17;1.10;;;27.70;95.90;;;;;;5072795;28;20036;-66
2022/07/20 09:56:33;;;;;;;1.75;0.98;;;27.80;95.70;;;;;;5066062;28;20044;-67
2022/07/20 09:59:02;;;;;;;0.28;0.28;;;27.90;95.30;;;;;;5079424;28;20036;-67
2022/07/20 10:01:31;;;;;;;0.75;0.35;;;28.00;94.80;;;;;;5090269;28;20040;-67
2022/07/20 10:03:59;;;;;;;0.63;0.63;;;27.90;94.70;;;;;;5087201;28;20123;-66
2022/07/20 10:06:26;;;;;;;0.90;0.90;;;28.40;95.50;;;;;;5079468;28;20674;-66
2022/07/20 10:08:53;;;;;;;0.98;0.57;;;28.50;95.30;;;;;;5091265;28;20044;-67
2022/07/20 10:11:22;;;;;;;3.58;0.52;;;28.50;95.10;;;;;;5069275;28;20411;-67
2022/07/20 10:13:49;;;;;;;0.25;0.22;;;28.70;94.60;;;;;;5060151;28;20124;-67
2022/07/20 10:16:36;;;;;;;0.98;0.82;;;28.60;94.80;;;;;;5042202;28;20120;-67
2022/07/20 10:19:03;;;;;;;0.47;0.47;;;28.70;94.60;;;;;;5063985;28;20038;-66
2022/07/20 10:21:49;;;;;;;0.30;0.30;;;28.80;93.90;;;;;;5050012;28;20091;-66
2022/07/20 10:24:18;;;;;;;0.52;0.52;;;29.10;94.10;;;;;;5055537;28;20143;-67
2022/07/20 10:26:46;;;;;;;0.00;0.00;;;29.20;93.80;;;;;;5068323;28;20085;-67
2022/07/20 10:29:34;;;;;;;0.25;0.25;;;29.30;93.60;;;;;;5072040;28;20056;-67
2022/07/20 10:32:09;;;;;;;0.00;0.00;;;29.30;93.30;;;;;;5068415;28;20404;-67
2022/07/20 10:34:42;;;;;;;0.17;0.17;;;29.40;93.10;;;;;;5051958;28;20079;-67
2022/07/20 10:37:38;;;;;;;0.20;0.20;;;29.50;93.00;;;;;;5078024;28;20058;-67
2022/07/20 10:40:31;;;;;;;0.00;0.00;;;29.50;92.80;;;;;;5089457;28;20079;-67
2022/07/20 10:43:14;;;;;;;0.03;0.03;;;29.60;93.30;;;;;;5077385;28;20066;-67
2022/07/20 10:45:41;;;;;;;0.03;0.03;;;29.80;93.20;;;;;;5090380;28;20084;-67
2022/07/20 10:48:12;;;;;;;0.00;0.00;;;29.90;93.00;;;;;;5082254;28;20033;-67
2022/07/20 10:50:38;;;;;;;0.13;0.13;;;29.90;92.50;;;;;;5069716;28;20562;-67
2022/07/20 10:53:10;;;;;;;0.77;0.52;;;30.20;92.40;;;;;;5087267;28;20040;-67
2022/07/20 10:55:36;;;;;;;0.20;0.20;;;30.20;92.50;;;;;;5071431;28;20143;-67
2022/07/20 10:58:10;;;;;;;0.00;0.00;;;30.10;92.20;;;;;;5070102;28;20138;-67
2022/07/20 11:00:41;;;;;;;2.13;0.55;;;30.30;92.70;;;;;;5077290;28;20102;-68
2022/07/20 11:03:20;;;;;;;0.60;0.60;;;30.50;92.30;;;;;;5075732;28;20051;-68
2022/07/20 11:05:47;;;;;;;0.30;0.20;;;30.50;92.40;;;;;;5088145;28;20051;-68
2022/07/20 11:08:13;;;;;;;0.73;0.50;;;30.70;91.70;;;;;;5079042;28;20072;-68
2022/07/20 11:10:40;;;;;;;0.20;0.20;;;30.50;92.00;;;;;;5089086;28;20803;-68
2022/07/20 11:13:11;;;;;;;0.20;0.20;;;30.60;91.60;;;;;;5074194;28;20041;-68
2022/07/20 11:15:51;;;;;;;0.00;0.00;;;30.80;91.80;;;;;;5080505;28;20129;-67
2022/07/20 11:18:19;;;;;;;0.20;0.20;;;30.80;92.10;;;;;;5038708;28;20434;-68
2022/07/20 11:20:49;;;;;;;8.52;3.00;;;30.80;91.40;;;;;;5072298;28;20048;-68
2022/07/20 11:23:16;;;;;;;0.40;0.22;;;30.70;91.30;;;;;;5070586;28;20068;-67
2022/07/20 11:25:52;;;;;;;1.20;0.98;;;30.70;90.60;;;;;;5077818;28;20049;-67
2022/07/20 11:28:21;;;;;;;0.17;0.08;;;30.80;91.00;;;;;;5068755;28;20877;-67
2022/07/20 11:30:47;;;;;;;0.65;0.65;;;30.60;90.60;;;;;;5046293;28;20047;-67
2022/07/20 11:33:13;;;;;;;2.50;0.52;;;30.50;91.10;;;;;;5062230;28;20040;-67
2022/07/20 11:35:38;;;;;;;0.32;0.25;;;30.80;91.50;;;;;;5045718;28;20067;-67
2022/07/20 11:38:04;;;;;;;0.17;0.10;;;30.80;91.30;;;;;;5059212;28;20040;-67
2022/07/20 11:40:30;;;;;;;0.98;0.68;;;30.80;89.60;;;;;;5035323;28;20044;-67
2022/07/20 11:43:25;;;;;;;0.00;0.00;;;30.80;90.20;;;;;;5055209;28;20036;-68
2022/07/20 11:45:50;;;;;;;0.00;0.00;;;30.90;90.80;;;;;;5041975;28;20048;-67
2022/07/20 11:48:21;;;;;;;0.22;0.22;;;31.00;90.20;;;;;;5072201;28;20040;-67
2022/07/20 11:50:47;;;;;;;1.80;0.65;;;31.10;90.20;;;;;;5068056;28;20033;-68
2022/07/20 11:53:31;;;;;;;0.03;0.03;;;30.90;88.30;;;;;;5053863;28;20051;-67
2022/07/20 11:55:59;;;;;;;0.00;0.00;;;30.70;88.70;;;;;;5060364;28;20412;-67
2022/07/20 11:58:29;;;;;;;0.13;0.05;;;30.80;89.30;;;;;;5061507;28;20055;-67
2022/07/20 12:00:55;;;;;;;9.65;1.17;;;31.00;89.20;;;;;;5063727;28;20040;-68
2022/07/20 12:03:29;;;;;;;0.00;0.00;;;31.10;89.90;;;;;;5068434;28;20032;-68
2022/07/20 12:05:59;;;;;;;0.40;0.40;;;31.30;89.00;;;;;;5067247;28;20138;-68
2022/07/20 12:08:26;;;;;;;0.10;0.10;;;31.30;87.20;;;;;;5055467;28;20049;-68
2022/07/20 12:10:52;;;;;;;0.00;0.00;;;31.30;87.80;;;;;;5068510;28;20506;-68
2022/07/20 12:13:17;;;;;;;0.10;0.10;;;31.40;88.60;;;;;;5084545;28;20167;-68
2022/07/20 12:15:56;;;;;;;0.00;0.00;;;31.50;89.00;;;;;;5068798;28;20520;-68
2022/07/20 12:18:32;;;;;;;0.15;0.15;;;31.70;88.50;;;;;;5055390;28;20486;-68
2022/07/20 12:20:59;;;;;;;0.10;0.10;;;31.80;89.20;;;;;;5069739;28;20040;-68
2022/07/20 12:23:26;;;;;;;0.50;0.50;;;31.80;89.00;;;;;;5070480;28;20102;-69
2022/07/20 12:25:52;;;;;;;0.75;0.10;;;31.90;89.20;;;;;;5070978;28;20408;-68
2022/07/20 12:28:31;;;;;;;0.43;0.43;;;32.00;88.80;;;;;;5067320;28;20040;-68
2022/07/20 12:31:19;;;;;;;0.80;0.10;;;31.80;88.20;;;;;;5059883;28;20052;-68
2022/07/20 12:34:08;;;;;;;0.00;0.00;;;31.90;88.90;;;;;;5062959;28;20052;-68
2022/07/20 12:36:37;;;;;;;0.10;0.10;;;32.00;88.30;;;;;;5043272;28;20127;-68
2022/07/20 12:39:08;;;;;;;0.30;0.30;;;31.80;87.00;;;;;;5047990;28;20048;-67
2022/07/20 12:41:34;;;;;;;0.00;0.00;;;31.80;87.50;;;;;;5062174;28;20041;-68
2022/07/20 12:44:12;;;;;;;2.17;0.73;;;31.90;88.50;;;;;;5078766;28;20105;-68
2022/07/20 12:46:38;;;;;;;0.52;0.25;;;32.00;89.00;;;;;;5082563;28;20841;-68
2022/07/20 12:49:04;;;;;;;0.35;0.35;;;32.10;89.10;;;;;;5082343;28;20044;-68